Ashton, Missouri
Current Conditions -  °F | °C
As of 4:15 PM on Sunday 25 Jan 2015 (Local Time) from KEOK Reporting Station
Overcast Overcast  
Wind Chill: -5°   Ceiling: 1300
Heat Index:   Visibility: 10mi
Dew Point: -2°   Wind: 12mph
Humidity: 87%   Direction: 20°NNE
Pressure: 29.91"   Gusts: 18mph
Location:  40.513°N, 91.8882°W
Report Text: KEOK 252215Z AUTO 02010G16KT 10SM BKN013 OVC017 M00/M02 A2991 RMK AO2
Loading
Personal Weather Stations






























Interactive Weather Map New forecast layout! Learn more

10-Day Weather Forecast

Advertisements
Track Severe Weather on mobile